Time;durP1;ratioP1;P1;durP2;ratioP2;P2;SDS_P1;SDS_P2;PMS_P1;PMS_P2;Temp;Humidity;BMP_temperature;BMP_pressure;BME280_temperature;BME280_humidity;BME280_pressure;Samples;Min_cycle;Max_cycle;Signal;HPM_P1;HPM_P2
2024/04/06 00:00:31;;;;;;;7.70;3.90;;;;;;;13.51;75.83;99762.48;130883;1267;107755;-78
2024/04/06 00:03:56;;;;;;;7.30;4.10;;;;;;;13.48;75.99;99763.13;130951;1253;109654;-78
2024/04/06 00:07:02;;;;;;;8.80;4.80;;;;;;;13.49;76.20;99761.61;130962;1256;107845;-77
2024/04/06 00:10:08;;;;;;;9.00;4.10;;;;;;;13.49;76.28;99759.95;130838;1256;107454;-77
2024/04/06 00:13:13;;;;;;;9.10;4.30;;;;;;;13.48;76.21;99760.84;130881;1256;108456;-77
2024/04/06 00:16:18;;;;;;;8.60;4.00;;;;;;;13.47;76.73;99763.44;130847;1253;107651;-77
2024/04/06 00:19:23;;;;;;;6.80;3.80;;;;;;;13.48;76.93;99759.97;130969;1256;106810;-77
2024/04/06 00:22:29;;;;;;;6.10;4.00;;;;;;;13.48;77.48;99764.95;130900;1256;108407;-78
2024/04/06 00:25:34;;;;;;;5.70;3.80;;;;;;;13.49;77.63;99763.60;130840;1258;106678;-77
2024/04/06 00:28:39;;;;;;;7.10;4.00;;;;;;;13.49;77.73;99767.98;130941;1260;105625;-78
2024/04/06 00:31:44;;;;;;;6.90;3.50;;;;;;;13.48;78.18;99764.73;130704;1256;193301;-77
2024/04/06 00:34:49;;;;;;;7.00;3.20;;;;;;;13.46;78.68;99769.64;130990;1257;108741;-77
2024/04/06 00:37:55;;;;;;;7.10;3.10;;;;;;;13.46;78.75;99776.42;131019;1257;106609;-78
2024/04/06 00:41:00;;;;;;;3.90;2.60;;;;;;;13.49;79.57;99783.90;130851;1257;106572;-77
2024/04/06 00:44:07;;;;;;;5.90;2.70;;;;;;;13.51;79.89;99783.70;130862;1256;107161;-78
2024/04/06 00:47:13;;;;;;;4.20;2.40;;;;;;;13.50;79.99;99775.91;130890;1256;107803;-77
2024/04/06 00:50:19;;;;;;;5.10;2.50;;;;;;;13.51;80.09;99786.11;130971;1256;106619;-77
2024/04/06 00:53:24;;;;;;;3.00;1.80;;;;;;;13.53;80.44;99772.38;130956;1253;107119;-77
2024/04/06 00:56:30;;;;;;;4.30;2.10;;;;;;;13.55;80.55;99786.46;130953;1264;108109;-78
2024/04/06 00:59:35;;;;;;;4.60;2.30;;;;;;;13.58;80.72;99791.41;130901;1254;108702;-77
2024/04/06 01:02:41;;;;;;;5.90;2.60;;;;;;;13.62;81.01;99795.56;130802;1256;107898;-78
2024/04/06 01:05:47;;;;;;;5.40;1.70;;;;;;;13.64;81.11;99790.22;130977;1256;107765;-77
2024/04/06 01:08:52;;;;;;;3.60;1.60;;;;;;;13.65;81.30;99788.78;130981;1257;107745;-77
2024/04/06 01:11:57;;;;;;;2.30;1.50;;;;;;;13.67;81.72;99786.02;130926;1264;108763;-77
2024/04/06 01:15:03;;;;;;;5.00;2.00;;;;;;;13.68;82.30;99783.73;130867;1256;106200;-78
2024/04/06 01:18:08;;;;;;;2.30;1.50;;;;;;;13.70;82.53;99782.84;130996;1256;107825;-77
2024/04/06 01:21:13;;;;;;;3.30;1.60;;;;;;;13.71;82.33;99779.34;130956;1257;107463;-77
2024/04/06 01:24:28;;;;;;;4.20;1.70;;;;;;;13.70;82.41;99785.52;130767;1254;108681;-76
2024/04/06 01:27:33;;;;;;;2.90;1.40;;;;;;;13.68;83.11;99783.83;130819;1257;108907;-76
2024/04/06 01:30:38;;;;;;;2.30;1.70;;;;;;;13.69;82.62;99784.09;130855;1255;107594;-76
2024/04/06 01:33:49;;;;;;;2.80;1.80;;;;;;;13.71;82.88;99788.06;130836;1257;108668;-76
2024/04/06 01:36:54;;;;;;;4.50;2.00;;;;;;;13.72;83.22;99784.06;130946;1257;105373;-76
2024/04/06 01:40:00;;;;;;;3.50;1.60;;;;;;;13.72;83.23;99777.38;130931;1258;106762;-76
2024/04/06 01:43:05;;;;;;;2.60;2.00;;;;;;;13.71;82.83;99779.05;130813;1256;106660;-76
2024/04/06 01:46:10;;;;;;;4.80;1.90;;;;;;;13.73;83.13;99779.90;130847;1256;106909;-77
2024/04/06 01:49:16;;;;;;;2.40;1.80;;;;;;;13.75;83.51;99782.40;130908;1254;106761;-76
2024/04/06 01:52:21;;;;;;;2.90;1.90;;;;;;;13.75;83.21;99785.21;130837;1253;106893;-76
2024/04/06 01:55:26;;;;;;;3.00;2.00;;;;;;;13.76;83.35;99789.08;130876;1256;108163;-77
2024/04/06 01:58:34;;;;;;;3.80;2.40;;;;;;;13.73;84.15;99800.65;130827;1257;106302;-76
2024/04/06 02:01:39;;;;;;;2.60;2.00;;;;;;;13.69;83.96;99806.76;130856;1258;108683;-77
2024/04/06 02:04:46;;;;;;;4.20;2.10;;;;;;;13.69;84.11;99808.35;130840;1255;107709;-77
2024/04/06 02:07:51;;;;;;;4.30;2.40;;;;;;;13.70;84.10;99813.41;130899;1256;108816;-77
2024/04/06 02:10:56;;;;;;;4.30;2.40;;;;;;;13.72;84.08;99810.09;130786;1256;108713;-77
2024/04/06 02:14:01;;;;;;;6.20;2.30;;;;;;;13.73;84.14;99813.23;130596;1253;107474;-77
2024/04/06 02:17:08;;;;;;;3.10;2.20;;;;;;;13.73;84.36;99819.39;130893;1258;106722;-77
2024/04/06 02:20:13;;;;;;;3.50;2.20;;;;;;;13.73;84.26;99816.63;130888;1254;107812;-77
2024/04/06 02:23:18;;;;;;;4.20;2.40;;;;;;;13.71;84.71;99822.70;130862;1256;107514;-77
2024/04/06 02:26:24;;;;;;;5.40;2.50;;;;;;;13.71;84.85;99827.86;130896;1258;106287;-77
2024/04/06 02:29:30;;;;;;;4.70;2.90;;;;;;;13.71;84.75;99827.73;130874;1254;106702;-77
2024/04/06 02:32:35;;;;;;;4.80;2.40;;;;;;;13.66;85.18;99833.52;130847;1256;108553;-77
2024/04/06 02:35:40;;;;;;;4.80;2.60;;;;;;;13.63;85.16;99840.55;130865;1257;106541;-77
2024/04/06 02:38:46;;;;;;;4.70;2.90;;;;;;;13.58;86.02;99851.83;130854;1256;107812;-77
2024/04/06 02:41:52;;;;;;;4.80;2.70;;;;;;;13.51;85.53;99847.80;130861;1257;106901;-77
2024/04/06 02:44:57;;;;;;;5.00;2.90;;;;;;;13.47;85.22;99847.80;130935;1256;107751;-77
2024/04/06 02:48:02;;;;;;;4.90;2.70;;;;;;;13.40;85.39;99846.70;130819;1253;107841;-77
2024/04/06 02:51:08;;;;;;;7.20;3.00;;;;;;;13.28;86.28;99854.46;130726;1253;106946;-77
2024/04/06 02:54:13;;;;;;;4.50;2.90;;;;;;;13.15;85.82;99862.69;130764;1253;107691;-77
2024/04/06 02:57:19;;;;;;;5.00;2.60;;;;;;;13.06;86.28;99864.33;130859;1256;107708;-77
2024/04/06 03:00:24;;;;;;;4.50;2.60;;;;;;;13.00;85.85;99863.10;130885;1256;107924;-78
2024/04/06 03:03:30;;;;;;;4.90;2.80;;;;;;;12.94;86.54;99866.73;130908;1258;108761;-77
2024/04/06 03:06:35;;;;;;;6.00;2.50;;;;;;;12.85;86.63;99864.45;130823;1254;106958;-77
2024/04/06 03:09:41;;;;;;;5.90;2.90;;;;;;;12.78;87.69;99865.96;130914;1256;107751;-77
2024/04/06 03:12:46;;;;;;;3.00;2.20;;;;;;;12.68;87.97;99866.79;130922;1257;107541;-77
2024/04/06 03:15:51;;;;;;;4.20;2.40;;;;;;;12.60;87.71;99870.21;130955;1253;107558;-77
2024/04/06 03:18:56;;;;;;;3.40;2.50;;;;;;;12.56;87.15;99877.90;130988;1254;107725;-77
2024/04/06 03:22:02;;;;;;;4.50;2.50;;;;;;;12.52;87.96;99885.13;130935;1254;108572;-76
2024/04/06 03:25:07;;;;;;;5.00;2.40;;;;;;;12.46;88.01;99885.55;130968;1257;108455;-78
2024/04/06 03:28:12;;;;;;;5.40;2.30;;;;;;;12.37;89.04;99886.48;130868;1254;108431;-78
2024/04/06 03:31:18;;;;;;;4.20;2.70;;;;;;;12.31;88.99;99893.94;130823;1256;108458;-78
2024/04/06 03:34:23;;;;;;;4.40;2.50;;;;;;;12.26;88.92;99893.67;130972;1256;106666;-78
2024/04/06 03:37:28;;;;;;;4.20;2.40;;;;;;;12.21;89.00;99892.96;130984;1256;108756;-76
2024/04/06 03:40:33;;;;;;;4.70;2.40;;;;;;;12.15;89.09;99897.83;130949;1256;106631;-79
2024/04/06 03:43:39;;;;;;;4.70;2.00;;;;;;;12.12;88.36;99905.69;130980;1257;106570;-76
2024/04/06 03:46:44;;;;;;;3.40;2.40;;;;;;;12.12;89.23;99909.11;130932;1263;106386;-77
2024/04/06 03:49:50;;;;;;;5.00;2.60;;;;;;;12.07;89.74;99910.20;130869;1265;107741;-78
2024/04/06 03:52:55;;;;;;;6.00;3.10;;;;;;;12.02;89.14;99914.52;130867;1256;106239;-78
2024/04/06 03:56:00;;;;;;;5.70;2.30;;;;;;;11.98;89.58;99922.44;130851;1253;108238;-78
2024/04/06 03:59:06;;;;;;;3.80;2.30;;;;;;;11.95;89.47;99930.20;130860;1257;107757;-77
2024/04/06 04:02:12;;;;;;;4.20;2.20;;;;;;;11.95;88.99;99925.08;130837;1255;107896;-77
2024/04/06 04:05:17;;;;;;;4.20;2.80;;;;;;;11.96;88.82;99935.31;130828;1256;106409;-77
2024/04/06 04:08:22;;;;;;;4.00;2.40;;;;;;;11.94;88.88;99944.64;130864;1253;107819;-78
2024/04/06 04:11:27;;;;;;;3.10;2.00;;;;;;;11.92;89.00;99947.02;130849;1254;106621;-78
2024/04/06 04:14:33;;;;;;;5.50;2.20;;;;;;;11.93;88.99;99950.67;130874;1254;108690;-77
2024/04/06 04:17:38;;;;;;;4.00;2.10;;;;;;;11.95;89.21;99947.35;130828;1256;108575;-77
2024/04/06 04:20:44;;;;;;;4.80;2.30;;;;;;;11.99;89.00;99963.89;130860;1256;106552;-77
2024/04/06 04:23:49;;;;;;;5.00;2.20;;;;;;;11.98;89.01;99965.34;130885;1256;106408;-77
2024/04/06 04:26:54;;;;;;;4.90;2.40;;;;;;;12.00;89.00;99966.42;130847;1256;106830;-77
2024/04/06 04:29:59;;;;;;;5.10;3.00;;;;;;;12.08;89.32;99967.12;130946;1256;105694;-76
2024/04/06 04:33:05;;;;;;;4.30;2.20;;;;;;;12.17;89.18;99969.16;130898;1257;107074;-76
2024/04/06 04:36:12;;;;;;;6.20;2.10;;;;;;;12.32;88.95;99976.07;130878;1257;107698;-76
2024/04/06 04:39:17;;;;;;;3.70;1.80;;;;;;;12.47;88.89;99985.89;130865;1256;107812;-76
2024/04/06 04:42:22;;;;;;;2.90;1.80;;;;;;;12.54;88.68;99993.17;130829;1254;107678;-76
2024/04/06 04:45:28;;;;;;;5.30;2.40;;;;;;;12.67;88.65;99993.05;130830;1256;108404;-76
2024/04/06 04:48:51;;;;;;;5.80;2.10;;;;;;;12.80;88.70;99994.67;130849;1255;108721;-76
2024/04/06 04:51:56;;;;;;;2.80;1.80;;;;;;;12.93;88.55;99994.20;130862;1254;108891;-77
2024/04/06 04:55:02;;;;;;;5.50;2.00;;;;;;;13.09;88.28;100001.66;130851;1253;106667;-77
2024/04/06 04:58:08;;;;;;;3.20;1.70;;;;;;;13.23;88.25;100004.22;130816;1254;108673;-77
2024/04/06 05:01:13;;;;;;;3.90;1.70;;;;;;;13.35;88.21;100005.70;130827;1256;106454;-76
2024/04/06 05:04:19;;;;;;;2.60;1.60;;;;;;;13.50;88.15;100003.58;130899;1251;107820;-76
2024/04/06 05:07:24;;;;;;;3.70;1.80;;;;;;;13.65;87.90;100006.83;130909;1256;107235;-77
2024/04/06 05:10:29;;;;;;;2.70;1.90;;;;;;;13.85;87.71;100016.29;130922;1256;109069;-76
2024/04/06 05:13:34;;;;;;;2.60;1.70;;;;;;;14.02;87.40;100017.92;130831;1256;106975;-76
2024/04/06 05:16:39;;;;;;;4.10;2.00;;;;;;;14.14;87.26;100015.99;130870;1254;106439;-77
2024/04/06 05:19:45;;;;;;;3.10;1.60;;;;;;;14.28;87.53;100014.86;130920;1256;106551;-76
2024/04/06 05:22:51;;;;;;;2.90;1.60;;;;;;;14.42;86.98;100021.69;130992;1257;107545;-76
2024/04/06 05:25:56;;;;;;;2.90;1.70;;;;;;;14.58;87.01;100028.49;130874;1256;108556;-77
2024/04/06 05:29:02;;;;;;;3.70;1.90;;;;;;;14.69;86.76;100025.23;130894;1256;107565;-77
2024/04/06 05:32:08;;;;;;;3.30;1.80;;;;;;;14.77;86.65;100030.80;130818;1255;106969;-77
2024/04/06 05:35:14;;;;;;;3.30;1.70;;;;;;;14.83;86.35;100032.23;130842;1253;106594;-76
2024/04/06 05:38:21;;;;;;;4.20;2.00;;;;;;;14.84;86.55;100038.95;130851;1256;107560;-77
2024/04/06 05:41:26;;;;;;;5.30;1.70;;;;;;;14.88;86.12;100042.52;130553;1257;107434;-77
2024/04/06 05:44:32;;;;;;;3.70;2.10;;;;;;;14.93;86.17;100043.20;130850;1254;106648;-77
2024/04/06 05:47:38;;;;;;;3.00;1.70;;;;;;;14.99;85.86;100044.14;130830;1256;107607;-77
2024/04/06 05:50:44;;;;;;;5.70;1.60;;;;;;;15.02;85.36;100042.33;130829;1256;106619;-77
2024/04/06 05:53:50;;;;;;;2.90;1.80;;;;;;;14.96;85.30;100046.66;130817;1256;107786;-77
2024/04/06 05:56:55;;;;;;;2.70;1.90;;;;;;;14.97;85.50;100050.69;130835;1254;107364;-77
2024/04/06 06:00:00;;;;;;;3.50;2.00;;;;;;;14.95;85.61;100056.44;130833;1256;106345;-77
2024/04/06 06:03:06;;;;;;;3.00;2.00;;;;;;;14.95;85.61;100063.85;130811;1257;106747;-77
2024/04/06 06:06:12;;;;;;;3.00;1.80;;;;;;;15.00;85.44;100071.35;130939;1255;108888;-77
2024/04/06 06:09:17;;;;;;;2.50;1.80;;;;;;;15.07;85.44;100073.80;130875;1256;107754;-77
2024/04/06 06:12:24;;;;;;;3.40;1.90;;;;;;;15.15;85.07;100076.15;130820;1256;107105;-77
2024/04/06 06:15:29;;;;;;;2.90;1.80;;;;;;;15.19;85.26;100092.11;130900;1256;107922;-77
2024/04/06 06:18:34;;;;;;;2.90;1.90;;;;;;;15.18;84.66;100097.11;130848;1254;106953;-77
2024/04/06 06:21:39;;;;;;;2.90;1.90;;;;;;;15.18;85.01;100103.45;130903;1256;107548;-77
2024/04/06 06:24:45;;;;;;;3.40;1.90;;;;;;;15.11;84.51;100099.59;130879;1258;107428;-77
2024/04/06 06:27:50;;;;;;;3.80;1.50;;;;;;;14.99;84.60;100099.92;130921;1253;108386;-78
2024/04/06 06:30:55;;;;;;;3.10;1.60;;;;;;;15.05;84.54;100099.79;130886;1256;108679;-78
2024/04/06 06:34:00;;;;;;;3.20;1.70;;;;;;;15.18;84.81;100100.66;130981;1253;106754;-78
2024/04/06 06:37:06;;;;;;;5.70;1.70;;;;;;;15.26;84.03;100097.00;130860;1256;106658;-77
2024/04/06 06:40:11;;;;;;;3.10;1.70;;;;;;;15.32;84.43;100097.20;130912;1256;108699;-77
2024/04/06 06:43:16;;;;;;;3.20;1.90;;;;;;;15.44;84.06;100094.86;130952;1256;107208;-78
2024/04/06 06:46:22;;;;;;;3.60;1.80;;;;;;;15.47;83.43;100098.29;130928;1256;108843;-78
2024/04/06 06:49:27;;;;;;;3.80;1.40;;;;;;;15.46;83.62;100107.13;130807;1256;105840;-78
2024/04/06 06:52:32;;;;;;;2.70;1.40;;;;;;;15.51;83.35;100104.92;130842;1256;108129;-78
2024/04/06 06:55:37;;;;;;;4.90;2.00;;;;;;;15.56;82.74;100106.70;130878;1256;107800;-79
2024/04/06 06:58:42;;;;;;;3.80;1.80;;;;;;;15.60;82.57;100114.16;130991;1255;107112;-79
2024/04/06 07:01:48;;;;;;;2.60;1.50;;;;;;;15.57;81.59;100119.21;130916;1256;107235;-78
2024/04/06 07:04:54;;;;;;;4.90;1.80;;;;;;;15.60;82.55;100127.55;131222;1251;108717;-78
2024/04/06 07:08:00;;;;;;;4.20;1.60;;;;;;;15.75;81.88;100128.59;130986;1256;107196;-78
2024/04/06 07:11:06;;;;;;;4.20;1.60;;;;;;;15.82;81.57;100132.89;130930;1256;108547;-80
2024/04/06 07:14:11;;;;;;;3.30;1.60;;;;;;;15.88;81.79;100135.81;131202;1257;107726;-79
2024/04/06 07:17:17;;;;;;;5.40;1.70;;;;;;;15.98;82.08;100130.58;131034;1254;108575;-79
2024/04/06 07:20:22;;;;;;;3.80;1.40;;;;;;;16.08;81.40;100134.68;131305;1253;107362;-81
2024/04/06 07:23:27;;;;;;;4.70;1.70;;;;;;;16.13;79.86;100140.86;131247;1256;106820;-81
2024/04/06 07:26:33;;;;;;;5.80;1.60;;;;;;;16.00;77.85;100142.98;131091;1251;107590;-87
2024/04/06 07:29:40;;;;;;;3.90;1.70;;;;;;;15.96;79.63;100149.42;131259;1250;108656;-81
2024/04/06 07:32:45;;;;;;;3.80;1.50;;;;;;;16.01;78.34;100147.74;131190;1256;107611;-80
2024/04/06 07:35:51;;;;;;;6.70;1.70;;;;;;;15.95;78.92;100149.27;131055;1256;108753;-80
2024/04/06 07:38:56;;;;;;;7.70;1.80;;;;;;;16.03;79.72;100142.13;131108;1257;106786;-80
2024/04/06 07:42:01;;;;;;;4.20;1.70;;;;;;;16.13;79.62;100138.58;134085;1250;107731;-81
2024/04/06 07:45:10;;;;;;;6.70;2.30;;;;;;;16.22;78.79;100135.45;131378;1255;108795;-80
2024/04/06 07:48:16;;;;;;;7.00;1.80;;;;;;;16.30;79.18;100137.90;131364;1256;107012;-80
2024/04/06 07:51:21;;;;;;;5.90;2.30;;;;;;;16.36;78.87;100137.05;130908;1256;107018;-80
2024/04/06 07:54:26;;;;;;;6.70;2.10;;;;;;;16.43;78.78;100135.92;130930;1256;107760;-80
2024/04/06 07:57:32;;;;;;;4.50;1.60;;;;;;;16.52;78.51;100135.74;130907;1257;106873;-80
2024/04/06 08:00:38;;;;;;;5.30;1.80;;;;;;;16.64;78.49;100137.19;130907;1255;107541;-80
2024/04/06 08:03:44;;;;;;;5.40;1.70;;;;;;;16.77;78.05;100138.71;130943;1256;108763;-80
2024/04/06 08:06:51;;;;;;;4.20;1.60;;;;;;;16.85;77.94;100140.45;130981;1256;107734;-80
2024/04/06 08:09:58;;;;;;;3.80;1.50;;;;;;;16.93;77.96;100141.26;130921;1256;107652;-81
2024/04/06 08:13:03;;;;;;;4.20;1.90;;;;;;;17.04;77.90;100143.80;131299;1255;108636;-80
2024/04/06 08:16:10;;;;;;;5.20;2.00;;;;;;;17.15;77.77;100141.92;131318;1251;108318;-80
2024/04/06 08:19:15;;;;;;;5.00;1.70;;;;;;;17.14;75.91;100140.25;130945;1255;106627;-79
2024/04/06 08:22:20;;;;;;;5.10;1.70;;;;;;;17.18;77.25;100144.23;131008;1255;107489;-79
2024/04/06 08:25:25;;;;;;;5.10;1.90;;;;;;;17.32;77.01;100143.71;130931;1256;107763;-80
2024/04/06 08:28:30;;;;;;;4.80;2.00;;;;;;;17.37;75.80;100146.89;130902;1255;108610;-79
2024/04/06 08:31:36;;;;;;;7.50;3.20;;;;;;;17.35;75.73;100148.08;130930;1256;108398;-80
2024/04/06 08:34:42;;;;;;;7.70;2.70;;;;;;;17.31;75.65;100148.15;130921;1256;106502;-79
2024/04/06 08:37:48;;;;;;;5.80;2.60;;;;;;;17.35;75.09;100150.54;130921;1257;107698;-79
2024/04/06 08:40:54;;;;;;;4.30;1.70;;;;;;;17.26;74.38;100151.82;130901;1253;107439;-79
2024/04/06 08:44:01;;;;;;;5.80;2.10;;;;;;;17.21;74.27;100149.46;130906;1256;108814;-79
2024/04/06 08:47:07;;;;;;;4.50;1.80;;;;;;;17.21;74.30;100151.33;130939;1255;107587;-79
2024/04/06 08:50:13;;;;;;;7.20;2.40;;;;;;;17.25;74.05;100151.27;130909;1257;108667;-80
2024/04/06 08:53:19;;;;;;;4.70;1.90;;;;;;;17.28;74.15;100149.89;130891;1256;108734;-79
2024/04/06 08:56:24;;;;;;;5.60;1.90;;;;;;;17.42;74.24;100146.08;130948;1257;108453;-79
2024/04/06 08:59:30;;;;;;;4.00;1.60;;;;;;;17.54;74.18;100152.36;131881;1251;108722;-80
2024/04/06 09:02:36;;;;;;;7.70;2.30;;;;;;;17.68;73.00;100156.16;131060;1256;107688;-80
2024/04/06 09:05:44;;;;;;;6.20;2.20;;;;;;;17.70;73.32;100154.95;131144;1254;106662;-80
2024/04/06 09:08:50;;;;;;;4.60;2.50;;;;;;;17.87;73.70;100158.02;130895;1256;106669;-80
2024/04/06 09:11:55;;;;;;;4.30;2.20;;;;;;;17.93;72.22;100156.88;130893;1256;107439;-80
2024/04/06 09:15:00;;;;;;;3.80;2.10;;;;;;;17.95;72.94;100158.77;130900;1255;108728;-79
2024/04/06 09:18:06;;;;;;;6.30;2.30;;;;;;;18.08;72.43;100161.57;130887;1256;107496;-80
2024/04/06 09:21:11;;;;;;;5.30;2.20;;;;;;;18.08;70.97;100164.98;130882;1256;108540;-79
2024/04/06 09:24:16;;;;;;;4.80;1.60;;;;;;;18.04;71.84;100166.09;130906;1256;108906;-80
2024/04/06 09:27:21;;;;;;;4.70;1.90;;;;;;;18.11;71.90;100167.06;130876;1255;108618;-80
2024/04/06 09:30:31;;;;;;;4.30;1.80;;;;;;;18.20;71.55;100168.86;130859;1256;108650;-79
2024/04/06 09:33:37;;;;;;;5.40;2.00;;;;;;;18.21;71.04;100168.70;130920;1256;109111;-79
2024/04/06 09:36:50;;;;;;;4.90;1.70;;;;;;;18.19;70.58;100169.57;131400;1256;108407;-80
2024/04/06 09:39:57;;;;;;;5.30;2.00;;;;;;;18.33;71.56;100168.83;131227;1250;107181;-80
2024/04/06 09:43:03;;;;;;;3.70;2.00;;;;;;;18.41;70.32;100170.55;131047;1253;108493;-80
2024/04/06 09:46:10;;;;;;;4.10;2.10;;;;;;;18.49;70.46;100165.20;133284;1250;108746;-80
2024/04/06 09:49:16;;;;;;;4.50;1.70;;;;;;;18.55;70.16;100167.98;131606;1256;108840;-80
2024/04/06 09:52:21;;;;;;;5.10;1.80;;;;;;;18.62;70.63;100165.98;131157;1255;107749;-80
2024/04/06 09:55:30;;;;;;;4.90;2.00;;;;;;;18.66;69.69;100163.13;131101;1250;108454;-80
2024/04/06 09:58:36;;;;;;;5.50;2.30;;;;;;;18.63;69.56;100166.13;131535;1256;106987;-80
2024/04/06 10:01:47;;;;;;;5.60;2.20;;;;;;;18.60;69.64;100168.52;131163;1255;107565;-79
2024/04/06 10:04:57;;;;;;;5.20;1.90;;;;;;;18.49;67.41;100172.89;131082;1256;107696;-78
2024/04/06 10:08:04;;;;;;;4.80;2.00;;;;;;;18.18;66.31;100174.94;131183;1256;107738;-80
2024/04/06 10:11:12;;;;;;;5.60;1.90;;;;;;;18.08;67.62;100180.10;130971;1256;106569;-79
2024/04/06 10:14:23;;;;;;;4.60;1.90;;;;;;;18.16;66.74;100183.84;131085;1251;108666;-78
2024/04/06 10:17:28;;;;;;;4.60;1.90;;;;;;;18.11;64.09;100177.40;130990;1257;106597;-78
2024/04/06 10:20:35;;;;;;;4.10;2.00;;;;;;;18.02;64.94;100179.14;130875;1256;106592;-78
2024/04/06 10:23:41;;;;;;;5.70;1.90;;;;;;;18.14;65.30;100180.83;130927;1255;106530;-78
2024/04/06 10:26:52;;;;;;;4.70;2.00;;;;;;;18.16;63.51;100181.49;130893;1257;108534;-78
2024/04/06 10:29:58;;;;;;;4.30;2.10;;;;;;;18.12;64.75;100179.54;130948;1256;107730;-78
2024/04/06 10:33:04;;;;;;;4.50;1.90;;;;;;;18.23;65.85;100183.09;130923;1255;108434;-78
2024/04/06 10:36:13;;;;;;;6.20;2.10;;;;;;;18.35;64.82;100195.61;130968;1255;106592;-78
2024/04/06 10:39:19;;;;;;;6.20;2.10;;;;;;;18.36;64.44;100193.77;130931;1256;108777;-79
2024/04/06 10:42:28;;;;;;;4.40;2.00;;;;;;;18.47;65.33;100197.53;130921;1254;106722;-79
2024/04/06 10:45:33;;;;;;;5.90;2.20;;;;;;;18.66;64.70;100197.55;130921;1256;108742;-82
2024/04/06 10:48:41;;;;;;;7.20;2.30;;;;;;;18.76;63.17;100197.22;130895;1257;107647;-79
2024/04/06 10:51:46;;;;;;;4.40;2.20;;;;;;;18.78;64.73;100196.72;130907;1255;108708;-79
2024/04/06 10:54:53;;;;;;;6.90;2.00;;;;;;;18.96;64.56;100199.55;130942;1257;105922;-78
2024/04/06 10:58:00;;;;;;;4.00;1.70;;;;;;;19.15;64.36;100202.33;130897;1256;106031;-78
2024/04/06 11:01:14;;;;;;;8.30;2.80;;;;;;;19.30;63.42;100204.63;130981;1251;107383;-79
2024/04/06 11:04:19;;;;;;;4.80;2.10;;;;;;;19.37;61.88;100202.90;131032;1256;107132;-79
2024/04/06 11:07:25;;;;;;;7.20;2.20;;;;;;;19.26;62.49;100200.02;130904;1256;107300;-79
2024/04/06 11:10:30;;;;;;;4.90;1.80;;;;;;;19.09;61.21;100203.55;130936;1254;108374;-78
2024/04/06 11:13:39;;;;;;;5.20;2.10;;;;;;;18.88;60.38;100199.19;131001;1256;107765;-78
2024/04/06 11:16:45;;;;;;;4.60;1.80;;;;;;;18.60;61.03;100201.23;130940;1256;108050;-79
2024/04/06 11:19:55;;;;;;;5.40;2.00;;;;;;;18.35;61.02;100197.31;130935;1253;107631;-79
2024/04/06 11:23:01;;;;;;;5.40;1.90;;;;;;;18.19;62.31;100189.84;130937;1256;106291;-79
2024/04/06 11:26:06;;;;;;;9.60;2.70;;;;;;;18.15;62.41;100196.94;130936;1256;106831;-80
2024/04/06 11:29:13;;;;;;;5.60;2.00;;;;;;;18.12;62.70;100201.13;130934;1254;106631;-79
2024/04/06 11:32:20;;;;;;;6.60;2.20;;;;;;;18.07;62.06;100210.59;131012;1256;107796;-79
2024/04/06 11:35:25;;;;;;;5.40;1.80;;;;;;;18.00;62.89;100214.06;130949;1250;107507;-78
2024/04/06 11:38:30;;;;;;;3.90;1.70;;;;;;;18.02;62.19;100220.88;130943;1256;108621;-78
2024/04/06 11:41:35;;;;;;;7.60;2.30;;;;;;;18.10;62.03;100219.81;130944;1256;108668;-79
2024/04/06 11:44:41;;;;;;;6.20;2.10;;;;;;;18.15;60.96;100220.58;130959;1251;106797;-79
2024/04/06 11:47:47;;;;;;;6.90;2.40;;;;;;;18.31;62.03;100219.48;130958;1257;106335;-79
2024/04/06 11:50:52;;;;;;;4.80;2.00;;;;;;;18.53;62.01;100213.50;131007;1251;107479;-79
2024/04/06 11:53:57;;;;;;;6.40;1.90;;;;;;;18.79;62.28;100205.80;130942;1251;106558;-79
2024/04/06 11:57:02;;;;;;;6.20;1.70;;;;;;;19.01;61.96;100210.67;130954;1256;107748;-79
2024/04/06 12:00:11;;;;;;;6.10;2.20;;;;;;;19.13;61.25;100215.44;130920;1264;107410;-78
2024/04/06 12:03:19;;;;;;;5.80;2.20;;;;;;;19.11;59.42;100217.04;130857;1256;107911;-79
2024/04/06 12:06:24;;;;;;;6.40;1.90;;;;;;;18.94;58.20;100222.77;130973;1251;106605;-80
2024/04/06 12:09:30;;;;;;;5.40;1.60;;;;;;;18.93;60.38;100221.66;130849;1254;107710;-78
2024/04/06 12:12:35;;;;;;;5.30;2.10;;;;;;;18.94;59.40;100217.95;130781;1256;108567;-78
2024/04/06 12:15:41;;;;;;;6.40;2.10;;;;;;;18.92;59.80;100221.89;130843;1257;108766;-80
2024/04/06 12:18:46;;;;;;;5.00;1.70;;;;;;;18.99;60.15;100219.02;131082;1254;108384;-79
2024/04/06 12:21:51;;;;;;;4.50;1.70;;;;;;;18.98;58.85;100219.61;131140;1255;107720;-79
2024/04/06 12:24:57;;;;;;;5.00;1.90;;;;;;;18.89;59.09;100220.23;131021;1255;108719;-79
2024/04/06 12:28:02;;;;;;;4.20;1.90;;;;;;;18.82;57.84;100225.60;131064;1255;108710;-78
2024/04/06 12:31:07;;;;;;;3.60;1.50;;;;;;;18.68;58.66;100223.42;130721;1256;108368;-78
2024/04/06 12:34:12;;;;;;;4.30;1.60;;;;;;;18.68;59.79;100216.67;130857;1256;115214;-79
2024/04/06 12:37:18;;;;;;;3.80;1.50;;;;;;;18.69;58.90;100213.30;131015;1256;105573;-78
2024/04/06 12:40:24;;;;;;;3.30;1.50;;;;;;;18.72;59.31;100213.60;130976;1256;106637;-80
2024/04/06 12:43:29;;;;;;;4.40;1.90;;;;;;;18.80;58.63;100217.54;130805;1258;107975;-79
2024/04/06 12:46:35;;;;;;;4.10;1.60;;;;;;;18.85;59.66;100212.10;130904;1257;106772;-79
2024/04/06 12:49:40;;;;;;;4.90;1.60;;;;;;;18.96;59.66;100209.63;131472;1251;108777;-79
2024/04/06 12:52:45;;;;;;;4.90;1.70;;;;;;;19.05;59.29;100212.79;130976;1256;108027;-79
2024/04/06 12:55:51;;;;;;;3.30;1.60;;;;;;;19.12;58.97;100206.66;130953;1256;106381;-79
2024/04/06 12:58:57;;;;;;;4.80;1.70;;;;;;;19.14;58.34;100211.23;131022;1256;108113;-79
2024/04/06 13:02:03;;;;;;;4.20;1.50;;;;;;;19.12;58.78;100208.37;130867;1256;106890;-80
2024/04/06 13:05:10;;;;;;;4.00;1.40;;;;;;;19.20;59.28;100217.34;130920;1257;108785;-79
2024/04/06 13:08:15;;;;;;;4.50;1.90;;;;;;;19.31;58.23;100217.48;130914;1264;106241;-79
2024/04/06 13:11:20;;;;;;;4.50;1.80;;;;;;;19.46;58.95;100218.45;130886;1254;106511;-79
2024/04/06 13:14:26;;;;;;;4.70;2.00;;;;;;;19.54;57.11;100223.83;130904;1256;108726;-80
2024/04/06 13:17:32;;;;;;;4.60;1.70;;;;;;;19.52;57.36;100223.77;130898;1257;108446;-79
2024/04/06 13:20:38;;;;;;;4.00;1.70;;;;;;;19.59;56.62;100226.95;130928;1257;106757;-80
2024/04/06 13:23:43;;;;;;;4.90;1.80;;;;;;;19.59;57.50;100225.10;130923;1256;107836;-80
2024/04/06 13:26:49;;;;;;;4.70;1.90;;;;;;;19.51;57.45;100218.30;131180;1257;108390;-81
2024/04/06 13:29:54;;;;;;;4.40;1.90;;;;;;;19.47;58.21;100213.92;131031;1259;108722;-81
2024/04/06 13:32:59;;;;;;;6.80;2.50;;;;;;;19.36;56.68;100216.27;131630;1256;107803;-80
2024/04/06 13:36:06;;;;;;;4.90;1.90;;;;;;;19.18;56.94;100218.17;131301;1257;107486;-83
2024/04/06 13:39:12;;;;;;;4.40;1.90;;;;;;;19.09;57.77;100224.89;130987;1256;107648;-80
2024/04/06 13:42:17;;;;;;;5.20;2.60;;;;;;;19.04;58.12;100230.71;131586;1252;106801;-81
2024/04/06 13:45:22;;;;;;;6.00;2.90;;;;;;;19.01;57.89;100229.02;135127;1253;107965;-81
2024/04/06 13:48:28;;;;;;;6.00;1.90;;;;;;;18.99;58.51;100227.60;135096;1253;108528;-81
2024/04/06 13:51:35;;;;;;;6.20;2.10;;;;;;;19.02;58.43;100230.80;135132;1250;108821;-80
2024/04/06 13:54:40;;;;;;;6.00;2.40;;;;;;;18.94;57.76;100230.89;131603;1256;107734;-80
2024/04/06 13:57:51;;;;;;;4.70;1.90;;;;;;;18.75;57.48;100231.52;130872;1256;107091;-80
2024/04/06 14:00:56;;;;;;;4.30;1.70;;;;;;;18.63;58.37;100229.64;130765;1256;108602;-80
2024/04/06 14:04:01;;;;;;;4.80;1.90;;;;;;;18.54;58.62;100229.17;130804;1256;108389;-80
2024/04/06 14:07:07;;;;;;;5.00;2.00;;;;;;;18.50;59.00;100230.30;130765;1266;107847;-80